Time;durP1;ratioP1;P1;durP2;ratioP2;P2;SDS_P1;SDS_P2;PMS_P1;PMS_P2;Temp;Humidity;BMP_temperature;BMP_pressure;BME280_temperature;BME280_humidity;BME280_pressure;Samples;Min_cycle;Max_cycle;Signal;HPM_P1;HPM_P2
2022/06/21 00:00:46;;;;;;;12.60;3.67;;;14.90;75.20;;;;;;2372093;56;21513;-76
2022/06/21 00:03:17;;;;;;;8.50;3.35;;;14.90;75.40;;;;;;2372468;56;21332;-76
2022/06/21 00:05:47;;;;;;;11.40;3.37;;;14.90;75.70;;;;;;2371718;56;21067;-76
2022/06/21 00:08:17;;;;;;;11.35;3.70;;;14.90;75.50;;;;;;2372514;56;21062;-77
2022/06/21 00:10:46;;;;;;;12.68;4.15;;;14.90;75.60;;;;;;2372814;56;21097;-76
2022/06/21 00:13:16;;;;;;;8.20;3.35;;;14.90;75.70;;;;;;2373512;56;21502;-76
2022/06/21 00:15:45;;;;;;;8.38;3.50;;;14.90;75.70;;;;;;2372807;56;21148;-76
2022/06/21 00:18:16;;;;;;;8.30;3.10;;;14.90;75.70;;;;;;2372641;56;21067;-77
2022/06/21 00:20:44;;;;;;;9.43;3.30;;;14.90;75.70;;;;;;2371850;56;21122;-76
2022/06/21 00:23:14;;;;;;;12.75;3.12;;;14.90;75.50;;;;;;2372831;56;21360;-77
2022/06/21 00:25:45;;;;;;;9.02;3.37;;;14.90;76.40;;;;;;2371708;56;21059;-76
2022/06/21 00:28:13;;;;;;;6.65;3.30;;;14.90;75.60;;;;;;2372357;56;21513;-76
2022/06/21 00:30:42;;;;;;;8.35;3.58;;;14.90;75.70;;;;;;2371775;56;21118;-75
2022/06/21 00:33:13;;;;;;;11.12;3.30;;;14.90;75.70;;;;;;2371998;56;21046;-76
2022/06/21 00:35:44;;;;;;;8.00;3.53;;;14.90;75.70;;;;;;2372158;56;21628;-77
2022/06/21 00:38:13;;;;;;;15.32;5.10;;;14.90;75.50;;;;;;2371773;56;21051;-76
2022/06/21 00:40:41;;;;;;;8.23;4.10;;;14.90;75.20;;;;;;2372146;56;21047;-76
2022/06/21 00:43:13;;;;;;;6.70;3.15;;;14.90;75.30;;;;;;2371367;56;21497;-76
2022/06/21 00:45:43;;;;;;;7.93;3.70;;;14.90;75.40;;;;;;2372379;56;21539;-76
2022/06/21 00:48:15;;;;;;;11.43;4.00;;;14.80;75.30;;;;;;2625367;52;21597;-77
2022/06/21 00:50:46;;;;;;;9.73;4.07;;;14.80;75.40;;;;;;2372282;56;21133;-76
2022/06/21 00:53:20;;;;;;;9.88;3.72;;;14.90;75.40;;;;;;2371145;56;21110;-77
2022/06/21 00:55:51;;;;;;;9.90;3.92;;;14.90;75.30;;;;;;2372306;56;21070;-76
2022/06/21 00:58:21;;;;;;;9.80;3.92;;;14.90;75.20;;;;;;2372180;56;21502;-76
2022/06/21 01:01:01;;;;;;;13.10;5.00;;;14.90;74.90;;;;;;2371846;56;21678;-76
2022/06/21 01:03:34;;;;;;;7.28;3.72;;;14.80;75.00;;;;;;2371032;56;21099;-76
2022/06/21 01:06:04;;;;;;;6.93;3.70;;;14.80;75.10;;;;;;2372090;56;21150;-76
2022/06/21 01:08:35;;;;;;;9.10;3.85;;;14.80;75.10;;;;;;2372329;56;21047;-76
2022/06/21 01:11:09;;;;;;;11.98;3.92;;;14.80;75.10;;;;;;2372665;56;21183;-76
2022/06/21 01:13:38;;;;;;;;;;;14.80;75.10;;;;;;2375616;56;21035;-76
2022/06/21 01:16:07;;;;;;;8.60;4.45;;;14.90;74.80;;;;;;2373055;56;20125;-76
2022/06/21 01:18:35;;;;;;;9.10;4.45;;;14.80;74.40;;;;;;2372255;56;21047;-76
2022/06/21 01:21:03;;;;;;;10.13;4.68;;;14.80;74.70;;;;;;2373017;56;21678;-77
2022/06/21 01:24:00;;;;;;;10.65;4.00;;;14.70;74.90;;;;;;2373269;56;21039;-76
2022/06/21 01:26:42;;;;;;;9.10;3.90;;;14.70;75.20;;;;;;2373722;56;21066;-77
2022/06/21 01:29:13;;;;;;;10.20;4.40;;;14.70;74.90;;;;;;2626982;52;21035;-77
2022/06/21 01:34:19;;;;;;;7.43;3.87;;;14.70;75.00;;;;;;2354194;57;22117;-76
2022/06/21 01:36:50;;;;;;;9.10;4.05;;;14.60;74.80;;;;;;2346752;57;21113;-76
2022/06/21 01:39:21;;;;;;;13.23;4.55;;;14.70;74.80;;;;;;2358415;56;21106;-75
2022/06/21 01:41:52;;;;;;;9.02;4.22;;;14.60;74.60;;;;;;2374398;56;21573;-76
2022/06/21 01:44:25;;;;;;;14.48;5.20;;;14.70;74.60;;;;;;2374592;56;21078;-76
2022/06/21 01:46:54;;;;;;;9.75;4.60;;;14.60;74.50;;;;;;2374186;56;21047;-77
2022/06/21 01:49:25;;;;;;;8.75;4.07;;;14.70;74.50;;;;;;2626775;52;21115;-76
2022/06/21 01:51:56;;;;;;;6.57;3.87;;;14.60;74.50;;;;;;2626657;52;21035;-76
2022/06/21 01:54:28;;;;;;;11.73;4.65;;;14.60;74.40;;;;;;2374610;56;21093;-76
2022/06/21 01:56:56;;;;;;;15.40;6.03;;;14.60;74.60;;;;;;2374617;56;21039;-77
2022/06/21 01:59:29;;;;;;;14.63;5.55;;;14.60;74.60;;;;;;2628212;52;21126;-76
2022/06/21 02:02:01;;;;;;;14.50;5.97;;;14.60;74.60;;;;;;2374930;56;21106;-77
2022/06/21 02:04:33;;;;;;;12.68;5.85;;;14.60;74.70;;;;;;2374422;56;21510;-76
2022/06/21 02:07:04;;;;;;;19.30;6.18;;;14.50;74.80;;;;;;2374377;56;21129;-76
2022/06/21 02:09:36;;;;;;;14.35;7.32;;;14.60;74.90;;;;;;2374395;56;21439;-76
2022/06/21 02:12:07;;;;;;;15.43;6.37;;;14.50;75.10;;;;;;2374621;56;21043;-77
2022/06/21 02:14:39;;;;;;;14.98;6.55;;;14.50;75.20;;;;;;2373722;56;21142;-76
2022/06/21 02:17:16;;;;;;;15.85;7.28;;;14.50;75.10;;;;;;2374516;56;21514;-77
2022/06/21 02:19:45;;;;;;;14.38;7.12;;;14.50;75.20;;;;;;2374248;56;21205;-76
2022/06/21 02:22:18;;;;;;;15.43;7.28;;;14.50;75.00;;;;;;2626539;52;21035;-76
2022/06/21 02:24:45;;;;;;;16.23;7.40;;;14.50;74.80;;;;;;2373976;56;21051;-77
2022/06/21 02:27:16;;;;;;;15.98;7.62;;;14.50;75.00;;;;;;2374276;56;21039;-76
2022/06/21 02:29:48;;;;;;;18.17;7.55;;;14.40;75.10;;;;;;2375003;56;21114;-75
2022/06/21 02:32:21;;;;;;;20.35;8.25;;;14.40;75.10;;;;;;2627959;52;21312;-77
2022/06/21 02:34:51;;;;;;;17.15;7.20;;;14.40;75.30;;;;;;2374622;56;21574;-76
2022/06/21 02:37:19;;;;;;;12.43;6.82;;;14.40;75.30;;;;;;2374659;56;21063;-76
2022/06/21 02:39:47;;;;;;;17.77;7.97;;;14.40;75.20;;;;;;2373737;56;21641;-75
2022/06/21 02:42:20;;;;;;;17.75;8.05;;;14.40;75.40;;;;;;2375051;56;21095;-76
2022/06/21 02:44:49;;;;;;;;;;;14.40;75.80;;;;;;2377424;56;21597;-76
2022/06/21 02:47:23;;;;;;;14.93;7.50;;;14.50;75.50;;;;;;2372261;56;20329;-77
2022/06/21 02:49:55;;;;;;;18.67;7.43;;;14.40;75.10;;;;;;2373734;56;21130;-76
2022/06/21 02:52:27;;;;;;;16.05;8.27;;;14.30;75.50;;;;;;2373310;56;21038;-76
2022/06/21 02:55:00;;;;;;;19.30;7.35;;;14.30;75.80;;;;;;2627545;52;21536;-77
2022/06/21 02:57:38;;;;;;;17.87;7.72;;;14.30;76.30;;;;;;2373042;56;21122;-77
2022/06/21 03:00:13;;;;;;;17.23;8.20;;;14.30;76.30;;;;;;2373380;56;21050;-76
2022/06/21 03:02:41;;;;;;;16.62;7.32;;;14.30;77.10;;;;;;2627716;52;21031;-76
2022/06/21 03:05:14;;;;;;;17.77;6.80;;;14.30;76.30;;;;;;2373681;56;21063;-76
2022/06/21 03:07:45;;;;;;;20.50;7.72;;;14.20;76.30;;;;;;2371165;56;21042;-76
2022/06/21 03:10:18;;;;;;;14.00;7.25;;;14.30;76.40;;;;;;2627415;52;21550;-76
2022/06/21 03:12:47;;;;;;;;;;;14.30;76.60;;;;;;2376992;56;21066;-76
2022/06/21 03:15:15;;;;;;;19.55;7.05;;;14.40;76.10;;;;;;2372919;56;20128;-76
2022/06/21 03:17:48;;;;;;;17.98;6.03;;;14.30;75.90;;;;;;2373105;56;21553;-76
2022/06/21 03:20:18;;;;;;;18.33;6.70;;;14.30;76.30;;;;;;2373394;56;21051;-76
2022/06/21 03:22:47;;;;;;;22.52;6.93;;;14.30;76.60;;;;;;2373217;56;21091;-75
2022/06/21 03:25:21;;;;;;;20.12;7.25;;;14.30;76.90;;;;;;2371854;56;21043;-76
2022/06/21 03:27:52;;;;;;;17.37;6.28;;;14.30;77.00;;;;;;2371619;56;21046;-76
2022/06/21 03:30:24;;;;;;;21.15;6.93;;;14.30;77.00;;;;;;2371527;56;21138;-76
2022/06/21 03:32:54;;;;;;;15.43;6.75;;;14.30;76.90;;;;;;2368800;56;21831;-76
2022/06/21 03:35:23;;;;;;;13.82;6.47;;;14.30;76.90;;;;;;2373843;56;21623;-77
2022/06/21 03:37:50;;;;;;;22.98;7.60;;;14.30;77.10;;;;;;2373772;56;21557;-76
2022/06/21 03:43:12;;;;;;;22.80;6.87;;;14.40;77.70;;;;;;2372887;56;21058;-76
2022/06/21 03:45:43;;;;;;;17.17;5.82;;;14.40;78.00;;;;;;2371993;56;21099;-76
2022/06/21 03:48:15;;;;;;;16.30;5.53;;;14.40;78.40;;;;;;2372124;56;21058;-76
2022/06/21 03:50:49;;;;;;;18.65;7.00;;;14.40;78.30;;;;;;2373397;56;21533;-76
2022/06/21 03:56:01;;;;;;;20.00;7.20;;;14.40;78.30;;;;;;2354651;57;20093;-76
2022/06/21 03:58:37;;;;;;;13.23;5.03;;;14.40;78.30;;;;;;2542436;53;72255;-83
2022/06/21 04:01:10;;;;;;;22.15;7.35;;;14.40;78.10;;;;;;2324765;58;21051;-82
2022/06/21 04:03:46;;;;;;;18.10;6.18;;;14.50;78.30;;;;;;2565598;54;21100;-82
2022/06/21 04:06:19;;;;;;;13.88;4.93;;;14.50;78.50;;;;;;2565896;53;21139;-83
2022/06/21 04:08:51;;;;;;;14.87;5.68;;;14.60;78.50;;;;;;2361142;57;21539;-83
2022/06/21 04:11:25;;;;;;;16.90;6.30;;;14.60;78.60;;;;;;2361715;57;21061;-83
2022/06/21 04:13:58;;;;;;;;;;;14.70;78.50;;;;;;2615864;53;21313;-83
2022/06/21 04:16:32;;;;;;;14.30;4.80;;;14.80;77.60;;;;;;2360981;57;20311;-82
2022/06/21 04:19:04;;;;;;;16.95;4.90;;;14.70;77.20;;;;;;2360315;57;21552;-84
2022/06/21 04:21:38;;;;;;;14.70;5.28;;;14.70;78.20;;;;;;2611155;53;21116;-83
2022/06/21 04:24:14;;;;;;;13.27;4.82;;;14.70;77.60;;;;;;2610392;53;21085;-83
2022/06/21 04:26:49;;;;;;;10.20;4.65;;;14.70;77.50;;;;;;2360519;57;21681;-83
2022/06/21 04:29:24;;;;;;;19.85;5.72;;;14.70;77.70;;;;;;2360921;57;21073;-84
2022/06/21 04:31:58;;;;;;;16.17;4.87;;;14.70;77.90;;;;;;2361275;57;21060;-83
2022/06/21 04:34:30;;;;;;;13.75;4.68;;;14.70;78.20;;;;;;2361203;57;21104;-83
2022/06/21 04:37:05;;;;;;;15.23;5.10;;;14.70;78.40;;;;;;2610965;53;21041;-83
2022/06/21 04:39:35;;;;;;;19.15;6.03;;;14.60;78.50;;;;;;2611085;53;21053;-84
2022/06/21 04:42:08;;;;;;;15.43;4.57;;;14.70;78.80;;;;;;2360385;57;21502;-83
2022/06/21 04:44:42;;;;;;;13.38;4.70;;;14.70;79.00;;;;;;2361778;57;21112;-83
2022/06/21 04:47:17;;;;;;;18.62;5.35;;;14.70;79.30;;;;;;2611577;53;21581;-83
2022/06/21 04:49:50;;;;;;;17.42;5.07;;;14.70;79.30;;;;;;2610873;53;21065;-82
2022/06/21 04:52:21;;;;;;;17.95;4.75;;;14.70;79.10;;;;;;2361706;57;21061;-82
2022/06/21 04:54:49;;;;;;;13.13;4.20;;;14.70;79.10;;;;;;2361185;57;21065;-83
2022/06/21 04:57:19;;;;;;;15.80;4.18;;;14.70;79.00;;;;;;2360697;57;21662;-83
2022/06/21 04:59:49;;;;;;;19.83;4.28;;;14.70;78.70;;;;;;2611243;53;21569;-83
2022/06/21 05:02:20;;;;;;;10.43;3.85;;;14.70;78.60;;;;;;2361095;57;21061;-83
2022/06/21 05:04:51;;;;;;;10.30;3.78;;;14.80;78.70;;;;;;2611543;53;21049;-83
2022/06/21 05:07:23;;;;;;;21.52;4.62;;;14.80;78.70;;;;;;2610219;53;21038;-83
2022/06/21 05:09:52;;;;;;;16.33;4.20;;;14.80;78.80;;;;;;2360083;57;21056;-83
2022/06/21 05:12:27;;;;;;;15.88;4.65;;;14.80;79.00;;;;;;2360539;57;21100;-82
2022/06/21 05:14:58;;;;;;;18.87;4.37;;;14.80;79.20;;;;;;2609652;53;21073;-84
2022/06/21 05:17:27;;;;;;;13.85;4.30;;;14.80;79.00;;;;;;2360746;57;21057;-83
2022/06/21 05:19:59;;;;;;;13.10;4.20;;;14.80;79.20;;;;;;2360073;57;21072;-83
2022/06/21 05:22:30;;;;;;;10.82;3.78;;;14.90;79.20;;;;;;2610137;53;21541;-83
2022/06/21 05:24:59;;;;;;;21.52;3.92;;;14.90;79.10;;;;;;2610154;53;21100;-82
2022/06/21 05:27:33;;;;;;;10.70;4.62;;;14.90;79.10;;;;;;2360229;57;21060;-83
2022/06/21 05:30:05;;;;;;;14.93;4.03;;;15.00;78.80;;;;;;2360456;57;21593;-81
2022/06/21 05:32:38;;;;;;;14.17;3.77;;;15.00;78.90;;;;;;2359866;57;21379;-83
2022/06/21 05:35:11;;;;;;;10.60;3.80;;;15.00;78.70;;;;;;2609903;53;21037;-83
2022/06/21 05:37:49;;;;;;;11.43;3.78;;;15.10;78.70;;;;;;2609494;53;21132;-83
2022/06/21 05:40:24;;;;;;;10.80;3.35;;;15.10;78.70;;;;;;2360615;57;21061;-82
2022/06/21 05:42:52;;;;;;;13.23;3.90;;;15.20;78.70;;;;;;2610909;53;21037;-82
2022/06/21 05:45:25;;;;;;;13.93;3.90;;;15.20;78.60;;;;;;2611028;53;21049;-80
2022/06/21 05:47:57;;;;;;;18.70;5.00;;;15.30;78.50;;;;;;2611530;53;21049;-82
2022/06/21 05:50:28;;;;;;;16.62;4.93;;;15.20;78.60;;;;;;2611522;53;21081;-83
2022/06/21 05:53:00;;;;;;;16.30;4.45;;;15.20;78.70;;;;;;2360780;57;21053;-82
2022/06/21 05:55:32;;;;;;;17.60;4.00;;;15.30;79.00;;;;;;2360895;57;21835;-83
2022/06/21 05:58:04;;;;;;;11.70;4.27;;;15.20;78.80;;;;;;2361615;57;21129;-81
2022/06/21 06:00:36;;;;;;;18.40;4.03;;;15.30;79.00;;;;;;2610191;53;21033;-81
2022/06/21 06:03:10;;;;;;;11.02;3.80;;;15.30;79.20;;;;;;2608903;53;21116;-83
2022/06/21 06:05:38;;;;;;;12.23;3.87;;;15.40;79.40;;;;;;2610706;53;21073;-82
2022/06/21 06:08:10;;;;;;;17.48;3.20;;;15.40;79.10;;;;;;2361283;57;21561;-82
2022/06/21 06:10:40;;;;;;;11.18;3.42;;;15.50;79.20;;;;;;2360846;57;21132;-82
2022/06/21 06:13:13;;;;;;;16.67;4.32;;;15.50;79.00;;;;;;2610787;53;21061;-82
2022/06/21 06:15:46;;;;;;;9.43;3.62;;;15.60;79.10;;;;;;2611460;53;21679;-81
2022/06/21 06:18:18;;;;;;;9.90;2.60;;;15.60;78.90;;;;;;2611520;53;21612;-81
2022/06/21 06:20:53;;;;;;;19.77;3.70;;;15.60;78.80;;;;;;2361482;57;21087;-81
2022/06/21 06:23:30;;;;;;;11.68;3.17;;;15.70;78.60;;;;;;2361080;57;21041;-82
2022/06/21 06:26:02;;;;;;;14.50;3.10;;;15.70;78.30;;;;;;2610504;53;21134;-81
2022/06/21 06:28:34;;;;;;;15.00;3.15;;;15.70;78.00;;;;;;2611203;53;21053;-82
2022/06/21 06:31:11;;;;;;;9.70;3.50;;;15.80;77.50;;;;;;2360927;57;21082;-81
2022/06/21 06:33:40;;;;;;;15.77;3.87;;;15.80;77.40;;;;;;2361420;57;21533;-81
2022/06/21 06:36:13;;;;;;;9.57;3.12;;;15.80;77.20;;;;;;2360954;57;21707;-80
2022/06/21 06:38:41;;;;;;;11.70;3.05;;;15.80;77.20;;;;;;2361371;57;21538;-81
2022/06/21 06:41:15;;;;;;;9.75;3.22;;;15.90;77.20;;;;;;2610895;53;21519;-83
2022/06/21 06:43:48;;;;;;;20.88;3.60;;;15.90;76.90;;;;;;2611430;53;21084;-82
2022/06/21 06:46:28;;;;;;;14.90;3.50;;;15.90;76.80;;;;;;2610623;53;21521;-82
2022/06/21 06:49:01;;;;;;;10.52;2.80;;;15.90;76.60;;;;;;2610229;53;21029;-80
2022/06/21 06:51:41;;;;;;;11.45;2.80;;;15.90;76.30;;;;;;2361277;57;21045;-81
2022/06/21 06:54:17;;;;;;;9.00;2.62;;;15.90;76.30;;;;;;2361669;57;21037;-82
2022/06/21 06:56:59;;;;;;;7.72;2.47;;;16.00;76.30;;;;;;2611114;53;21041;-81
2022/06/21 06:59:26;;;;;;;8.65;2.65;;;16.00;76.20;;;;;;2361074;57;21041;-81
2022/06/21 07:01:58;;;;;;;9.48;2.90;;;16.00;75.90;;;;;;2360958;57;21044;-81
2022/06/21 07:04:30;;;;;;;12.23;2.65;;;16.10;76.00;;;;;;2360393;57;21061;-81
2022/06/21 07:07:02;;;;;;;12.55;3.20;;;16.20;76.10;;;;;;2360797;57;21684;-81
2022/06/21 07:09:33;;;;;;;10.32;3.12;;;16.20;75.90;;;;;;2608938;53;21089;-81
2022/06/21 07:12:06;;;;;;;11.27;3.03;;;16.30;75.80;;;;;;2361122;57;21101;-82
2022/06/21 07:14:36;;;;;;;6.10;2.05;;;16.40;75.50;;;;;;2361141;57;21608;-82
2022/06/21 07:17:11;;;;;;;10.75;2.87;;;16.40;75.20;;;;;;2360664;57;21072;-81
2022/06/21 07:19:39;;;;;;;8.05;2.92;;;16.40;75.00;;;;;;2360607;57;21061;-82
2022/06/21 07:22:15;;;;;;;10.63;2.50;;;16.50;75.10;;;;;;2361043;57;21040;-81
2022/06/21 07:24:44;;;;;;;12.07;2.83;;;16.50;74.60;;;;;;2610418;53;21526;-82
2022/06/21 07:27:16;;;;;;;9.25;2.92;;;16.60;74.90;;;;;;2360495;57;21092;-81
2022/06/21 07:29:53;;;;;;;10.65;2.62;;;16.60;74.80;;;;;;2360860;57;21041;-82
2022/06/21 07:32:26;;;;;;;10.07;2.35;;;16.70;74.40;;;;;;2610817;53;21041;-81
2022/06/21 07:34:59;;;;;;;9.35;2.62;;;16.80;74.30;;;;;;2611108;53;21530;-81
2022/06/21 07:37:33;;;;;;;9.73;2.58;;;16.70;73.70;;;;;;2360578;57;21057;-81
2022/06/21 07:40:02;;;;;;;;;;;16.80;73.90;;;;;;2614414;53;21144;-81
2022/06/21 07:42:34;;;;;;;7.22;2.60;;;16.90;73.50;;;;;;2610521;53;20099;-82
2022/06/21 07:45:07;;;;;;;7.30;2.40;;;16.90;72.70;;;;;;2611282;53;21101;-82
2022/06/21 07:47:41;;;;;;;8.57;2.30;;;16.90;72.80;;;;;;2610785;53;21077;-82
2022/06/21 07:50:14;;;;;;;8.93;2.72;;;17.00;72.50;;;;;;2611108;53;21120;-80
2022/06/21 07:52:50;;;;;;;7.75;2.72;;;17.00;73.10;;;;;;2360998;57;21537;-81
2022/06/21 07:55:25;;;;;;;10.50;3.35;;;17.00;72.10;;;;;;2610994;53;21172;-81
2022/06/21 07:57:58;;;;;;;6.72;2.50;;;17.10;71.60;;;;;;2611046;53;21160;-82
2022/06/21 08:06:40;;;;;;;8.88;2.40;;;17.20;71.60;;;;;;2609726;53;21641;-82
2022/06/21 08:09:17;;;;;;;6.40;2.43;;;17.20;71.50;;;;;;2609957;53;21069;-82
2022/06/21 08:11:47;;;;;;;10.77;2.37;;;17.40;70.30;;;;;;2611120;53;21089;-81
2022/06/21 08:14:16;;;;;;;14.57;3.22;;;17.30;70.10;;;;;;2360943;57;21680;-82
2022/06/21 08:16:50;;;;;;;8.80;2.83;;;17.40;69.80;;;;;;2360702;57;21045;-81
2022/06/21 08:19:24;;;;;;;7.05;2.10;;;17.40;69.50;;;;;;2610336;53;21041;-81
2022/06/21 08:21:57;;;;;;;8.63;2.00;;;17.40;68.60;;;;;;2360562;57;21041;-82
2022/06/21 08:24:34;;;;;;;6.80;2.25;;;17.50;68.70;;;;;;2361164;57;21109;-82
2022/06/21 08:29:45;;;;;;;6.93;2.08;;;17.50;68.60;;;;;;2355145;56;22063;-74
2022/06/21 08:32:22;;;;;;;7.35;2.05;;;17.60;68.50;;;;;;2361314;57;21036;-74
2022/06/21 08:34:54;;;;;;;8.82;2.50;;;17.60;66.50;;;;;;2361840;57;21499;-73
2022/06/21 08:37:28;;;;;;;10.07;2.62;;;17.60;66.20;;;;;;2360926;57;21325;-75
2022/06/21 08:39:59;;;;;;;5.95;2.05;;;17.60;67.90;;;;;;2361538;57;21016;-74
2022/06/21 08:43:20;;;;;;;10.27;3.15;;;17.60;68.70;;;;;;2361215;57;21020;-74
2022/06/21 08:46:17;;;;;;;6.50;2.40;;;17.70;69.40;;;;;;2609883;52;21014;-74
2022/06/21 08:49:03;;;;;;;8.30;2.35;;;17.80;69.30;;;;;;2360683;57;21115;-74
2022/06/21 08:52:24;;;;;;;8.40;2.95;;;17.90;69.20;;;;;;2611638;53;21111;-75
2022/06/21 08:57:36;;;;;;;5.82;2.22;;;17.90;68.60;;;;;;2355020;57;22086;-74
2022/06/21 09:00:13;;;;;;;5.05;2.10;;;18.00;67.20;;;;;;2367735;56;21063;-74
2022/06/21 09:03:22;;;;;;;9.68;2.87;;;18.10;67.20;;;;;;2374553;56;21051;-74
2022/06/21 09:06:01;;;;;;;6.40;2.17;;;18.10;66.80;;;;;;2374516;56;21120;-74
2022/06/21 09:08:46;;;;;;;6.62;2.25;;;18.20;65.70;;;;;;2625140;52;21047;-74
2022/06/21 09:11:27;;;;;;;5.97;2.67;;;18.30;65.70;;;;;;2372562;56;21346;-74
2022/06/21 09:14:13;;;;;;;5.75;1.80;;;18.30;65.50;;;;;;2372922;56;21534;-74
2022/06/21 09:16:47;;;;;;;4.53;1.80;;;18.40;64.90;;;;;;2372915;56;21118;-74
2022/06/21 09:19:29;;;;;;;5.15;1.98;;;18.40;64.60;;;;;;2626491;52;21114;-74
2022/06/21 09:22:09;;;;;;;6.62;2.33;;;18.40;64.80;;;;;;2373073;56;21289;-75
2022/06/21 09:24:41;;;;;;;4.78;2.30;;;18.50;65.00;;;;;;2373449;56;21039;-75
2022/06/21 09:27:15;;;;;;;5.05;2.10;;;18.60;65.00;;;;;;2373146;56;21102;-74
2022/06/21 09:30:04;;;;;;;6.47;2.75;;;18.60;64.40;;;;;;2372059;56;21051;-74
2022/06/21 09:32:42;;;;;;;8.30;2.90;;;18.70;64.30;;;;;;2372420;56;21129;-74
2022/06/21 09:35:25;;;;;;;5.70;2.67;;;18.70;64.60;;;;;;2371987;56;21186;-74
2022/06/21 09:38:03;;;;;;;5.68;2.47;;;18.80;63.60;;;;;;2373209;56;21067;-74
2022/06/21 09:40:33;;;;;;;6.43;2.35;;;18.80;63.10;;;;;;2372354;56;21724;-74
2022/06/21 09:43:12;;;;;;;3.80;2.03;;;18.90;62.70;;;;;;2373291;56;21130;-74
2022/06/21 09:45:48;;;;;;;6.18;2.03;;;18.90;62.50;;;;;;2625600;52;21066;-75
2022/06/21 09:48:24;;;;;;;5.43;2.35;;;18.90;62.50;;;;;;2373135;56;21062;-74
2022/06/21 09:50:59;;;;;;;7.72;2.03;;;19.00;62.60;;;;;;2373489;56;21174;-74
2022/06/21 09:53:38;;;;;;;7.10;1.90;;;19.10;62.50;;;;;;2373059;56;21062;-74
2022/06/21 09:56:25;;;;;;;5.57;1.80;;;19.10;62.40;;;;;;2372458;56;21099;-74
2022/06/21 09:59:02;;;;;;;7.35;2.53;;;19.20;61.30;;;;;;2554175;51;21054;-75
2022/06/21 10:01:38;;;;;;;5.97;1.92;;;19.30;61.10;;;;;;2328751;57;21046;-75
2022/06/21 10:04:18;;;;;;;7.68;2.30;;;19.30;62.00;;;;;;2328833;57;21050;-75
2022/06/21 10:06:59;;;;;;;4.87;1.92;;;19.30;61.90;;;;;;2453104;54;21141;-76
2022/06/21 10:09:47;;;;;;;9.27;2.00;;;19.40;61.60;;;;;;2356670;54;21142;-76
2022/06/21 10:12:25;;;;;;;4.00;2.00;;;19.50;61.20;;;;;;2324760;57;21120;-77
2022/06/21 10:15:21;;;;;;;4.93;1.50;;;19.60;59.60;;;;;;2325919;57;21090;-77
2022/06/21 10:18:22;;;;;;;3.42;1.50;;;19.70;60.50;;;;;;2327740;54;21126;-78
2022/06/21 10:21:27;;;;;;;4.03;1.35;;;19.80;60.10;;;;;;2327155;57;21121;-78
2022/06/21 10:24:07;;;;;;;7.00;1.98;;;19.80;59.40;;;;;;2341946;54;21114;-78
2022/06/21 10:26:56;;;;;;;3.87;1.30;;;19.90;58.20;;;;;;2348827;54;21110;-77
2022/06/21 10:30:03;;;;;;;3.33;1.58;;;19.90;58.20;;;;;;2327390;57;21075;-77
2022/06/21 10:32:48;;;;;;;3.83;1.48;;;20.00;58.10;;;;;;2327798;57;21118;-77
2022/06/21 10:35:38;;;;;;;3.10;1.45;;;20.10;57.90;;;;;;2327564;57;21058;-77
2022/06/21 10:38:24;;;;;;;5.00;1.55;;;20.20;57.80;;;;;;2328179;57;21564;-77
2022/06/21 10:41:15;;;;;;;2.90;1.60;;;20.30;57.30;;;;;;2427568;54;21054;-77
2022/06/21 10:44:17;;;;;;;3.78;1.77;;;20.30;57.20;;;;;;2365454;54;21074;-78
2022/06/21 10:46:49;;;;;;;4.87;1.67;;;20.40;57.30;;;;;;2327518;57;21798;-78
2022/06/21 10:49:48;;;;;;;4.93;1.42;;;20.50;57.50;;;;;;2326298;57;21126;-77
2022/06/21 10:52:38;;;;;;;8.30;2.00;;;20.60;57.60;;;;;;2316520;57;21069;-78
2022/06/21 10:55:31;;;;;;;5.60;1.73;;;20.80;57.20;;;;;;2570940;54;21185;-77
2022/06/21 10:58:08;;;;;;;2.40;1.30;;;20.90;55.80;;;;;;2327355;57;21054;-78
2022/06/21 11:04:37;;;;;;;4.07;1.50;;;21.00;54.40;;;;;;2507120;54;21462;-78
2022/06/21 11:09:48;;;;;;;4.22;1.40;;;21.10;54.00;;;;;;2367984;52;22071;-75
2022/06/21 11:15:18;;;;;;;4.63;1.40;;;21.40;53.60;;;;;;2344955;53;21053;-77
2022/06/21 11:17:58;;;;;;;8.55;1.33;;;21.60;53.30;;;;;;2345604;57;21141;-77
2022/06/21 11:20:39;;;;;;;7.00;1.85;;;21.70;52.70;;;;;;2593529;52;21113;-77
2022/06/21 11:23:19;;;;;;;6.20;1.73;;;21.80;52.60;;;;;;2344745;57;21038;-78
2022/06/21 11:25:52;;;;;;;3.95;1.50;;;22.00;51.80;;;;;;2345026;57;21097;-77
2022/06/21 11:28:42;;;;;;;4.20;1.67;;;22.10;51.70;;;;;;2350118;53;21062;-78
2022/06/21 11:31:18;;;;;;;2.00;1.30;;;22.20;51.20;;;;;;2398986;53;21093;-76
2022/06/21 11:33:55;;;;;;;2.08;1.30;;;22.20;50.60;;;;;;2343506;57;21358;-77
2022/06/21 11:36:32;;;;;;;4.32;1.30;;;22.40;50.20;;;;;;2343863;57;21698;-77
2022/06/21 11:39:22;;;;;;;4.05;1.55;;;22.50;50.70;;;;;;2344932;57;21030;-77
2022/06/21 11:42:05;;;;;;;4.47;1.40;;;22.60;50.40;;;;;;2344473;57;21045;-75
2022/06/21 11:44:45;;;;;;;2.60;1.37;;;22.70;49.40;;;;;;2372474;53;21101;-77
2022/06/21 11:47:19;;;;;;;4.12;1.50;;;22.90;50.40;;;;;;2345370;57;21682;-78
2022/06/21 11:49:52;;;;;;;5.93;1.58;;;23.00;49.60;;;;;;2358580;53;21058;-77
2022/06/21 11:53:09;;;;;;;5.35;1.40;;;23.10;48.60;;;;;;2349024;53;21520;-77
2022/06/21 11:55:43;;;;;;;10.13;2.45;;;23.30;49.60;;;;;;2345511;53;21121;-76
2022/06/21 11:58:25;;;;;;;5.70;1.50;;;23.40;49.50;;;;;;2358476;53;21188;-77
2022/06/21 12:00:59;;;;;;;2.42;1.10;;;23.50;48.60;;;;;;2344556;57;21041;-77
2022/06/21 12:03:34;;;;;;;5.07;1.60;;;23.60;48.30;;;;;;2345430;57;21116;-77
2022/06/21 12:06:08;;;;;;;4.65;1.55;;;23.70;47.60;;;;;;2342934;57;21642;-76
2022/06/21 12:08:42;;;;;;;5.15;1.45;;;23.80;48.00;;;;;;2343012;57;21073;-77
2022/06/21 12:14:00;;;;;;;2.65;1.30;;;24.00;48.20;;;;;;2372509;53;22591;-76
2022/06/21 12:16:39;;;;;;;5.53;1.73;;;24.10;46.40;;;;;;2344978;57;22181;-76
2022/06/21 12:19:11;;;;;;;2.67;1.40;;;24.20;46.80;;;;;;2355073;56;21473;-75
2022/06/21 12:21:44;;;;;;;4.70;1.90;;;24.40;47.60;;;;;;2373129;56;21088;-76
2022/06/21 12:24:16;;;;;;;6.15;1.75;;;24.40;47.00;;;;;;2455064;52;21057;-76
2022/06/21 12:26:45;;;;;;;2.62;1.45;;;24.30;46.50;;;;;;2407469;52;21182;-76
2022/06/21 12:29:16;;;;;;;4.18;1.40;;;24.10;45.90;;;;;;2373819;52;21110;-76
2022/06/21 12:31:49;;;;;;;3.33;1.50;;;23.90;45.40;;;;;;2374839;56;21054;-76
2022/06/21 12:34:27;;;;;;;6.72;1.23;;;23.80;46.40;;;;;;2629325;52;21569;-76
2022/06/21 12:37:01;;;;;;;4.12;1.15;;;23.90;46.50;;;;;;2458708;52;21038;-76
2022/06/21 12:39:33;;;;;;;2.95;1.52;;;24.00;46.80;;;;;;2374434;56;21126;-76
2022/06/21 12:42:29;;;;;;;2.67;1.23;;;24.10;45.40;;;;;;2375124;56;21109;-75
2022/06/21 12:45:13;;;;;;;5.37;1.83;;;24.20;45.50;;;;;;2372949;56;21031;-75
2022/06/21 12:47:45;;;;;;;;;;;24.40;45.90;;;;;;2378424;56;21114;-76
2022/06/21 12:50:33;;;;;;;4.07;1.90;;;24.50;45.90;;;;;;2374226;55;20054;-75
2022/06/21 12:53:13;;;;;;;2.62;1.40;;;24.50;44.80;;;;;;2371915;56;21325;-75
2022/06/21 12:55:51;;;;;;;5.07;2.03;;;24.50;44.80;;;;;;2371535;56;21114;-76
2022/06/21 12:58:32;;;;;;;7.75;1.62;;;24.60;45.20;;;;;;2372167;56;21066;-76
2022/06/21 13:01:05;;;;;;;5.15;1.40;;;24.70;45.40;;;;;;2373630;56;21055;-76
2022/06/21 13:03:55;;;;;;;4.12;1.62;;;24.70;45.10;;;;;;2373399;56;21090;-76
2022/06/21 13:06:45;;;;;;;2.35;1.20;;;24.90;45.00;;;;;;2406002;52;21601;-75
2022/06/21 13:09:41;;;;;;;3.28;1.58;;;24.90;44.30;;;;;;2407448;52;21035;-76
2022/06/21 13:15:55;;;;;;;3.65;1.40;;;25.00;44.30;;;;;;2353166;57;22078;-76
2022/06/21 13:18:37;;;;;;;2.55;1.27;;;25.10;45.20;;;;;;2341300;56;21527;-76
2022/06/21 13:21:27;;;;;;;3.97;1.48;;;25.20;44.80;;;;;;2372758;56;21626;-75
2022/06/21 13:24:09;;;;;;;3.72;1.73;;;25.30;44.50;;;;;;2372511;56;21612;-76
2022/06/21 13:27:00;;;;;;;3.95;1.75;;;25.30;44.20;;;;;;2372083;56;21031;-76
2022/06/21 13:29:37;;;;;;;2.33;1.40;;;25.30;43.40;;;;;;2374658;56;21165;-75
2022/06/21 13:32:08;;;;;;;5.57;1.50;;;25.20;43.30;;;;;;2375038;56;21098;-76
2022/06/21 13:34:42;;;;;;;3.12;1.50;;;25.30;43.60;;;;;;2552648;52;21054;-76
2022/06/21 13:37:14;;;;;;;2.87;1.20;;;25.30;43.90;;;;;;2373675;56;21691;-76
2022/06/21 13:39:50;;;;;;;5.97;1.90;;;25.40;43.30;;;;;;2374820;56;21059;-75
2022/06/21 13:42:38;;;;;;;2.00;1.67;;;25.30;43.80;;;;;;2404826;52;21958;-78
2022/06/21 13:45:28;;;;;;;3.65;1.65;;;25.30;44.00;;;;;;2489341;52;21110;-78
2022/06/21 13:48:01;;;;;;;3.17;1.17;;;25.30;42.70;;;;;;2375841;56;21071;-78
2022/06/21 13:50:36;;;;;;;3.62;1.62;;;25.30;44.10;;;;;;2464267;52;21118;-80
2022/06/21 13:53:13;;;;;;;3.85;1.48;;;25.40;43.50;;;;;;2371513;56;21553;-79
2022/06/21 13:55:47;;;;;;;3.72;1.30;;;25.50;44.00;;;;;;2419821;52;21071;-79
2022/06/21 13:58:34;;;;;;;3.05;1.35;;;25.50;43.90;;;;;;2601645;52;21098;-77
2022/06/21 14:01:16;;;;;;;4.28;1.77;;;25.60;43.40;;;;;;2373173;56;21137;-79